X  Zatvori METAR podaci zračne luke     LZPP Piešťany Airport
Temperatura
31°C Temperatura
19°C Točka rosišta
49% Vlaga



Vjetar
7 MPS
11 KM/S
3 M/S
6 Čvorovi



300°
ZSZ
Trenutna situacija

Vedro Vedro
Tlak zraka 1010.84 (hPa) - 29.85 (inHg)
Vidljivost 6 (milje) - 9.7 (km)
Zračna luka
Kôd zračne luke LZPP

Lokacija: Piešťany Airport
Udaljenost: 31 (mi)

Metar:
LZPP 141330Z 30006KT 270V340 CAVOK 31/19 Q1011

Vrijeme: 14-07-2024 15:30 CEST